Time,TemperatureF,DewpointF,PressureIn,WindDirection,WindDirectionDegrees,WindSpeedMPH,WindSpeedGustMPH,Humidity,HourlyPrecipIn,Conditions,Clouds,dailyrainin,SoftwareType,DateUTC
2013-04-03 00:03:00,58.8,55.9,29.91,WNW,288,0.1,1.2,90,0.41,RA,,0.05,WeatherDisplay:10.37,2013-04-03 05:03:00,
2013-04-03 00:08:00,58.5,55.9,29.90,WNW,288,0.5,2.3,91,0.43,RA,,0.09,WeatherDisplay:10.37,2013-04-03 05:08:00,
2013-04-03 00:13:00,58.2,55.6,29.91,WNW,288,0.0,0.0,91,0.45,RA,,0.10,WeatherDisplay:10.37,2013-04-03 05:13:00,
2013-04-03 00:18:00,58.0,55.4,29.91,WNW,288,0.0,0.0,91,0.48,RA,,0.12,WeatherDisplay:10.37,2013-04-03 05:18:00,
2013-04-03 00:23:00,57.8,55.5,29.90,NNW,336,1.3,2.3,92,0.47,RA,,0.12,WeatherDisplay:10.37,2013-04-03 05:23:00,
2013-04-03 00:28:00,57.8,55.8,29.90,North,9,0.1,2.0,93,0.50,RA,,0.14,WeatherDisplay:10.37,2013-04-03 05:28:00,
2013-04-03 00:33:00,57.8,55.8,29.91,North,9,0.0,1.2,93,0.51,RA,,0.15,WeatherDisplay:10.37,2013-04-03 05:33:00,
2013-04-03 00:38:00,57.9,55.9,29.91,North,9,1.0,1.2,93,0.49,RA,,0.14,WeatherDisplay:10.37,2013-04-03 05:38:00,
2013-04-03 00:43:00,57.9,55.9,29.91,North,9,0.0,0.0,93,0.00,RA,,0.16,WeatherDisplay:10.37,2013-04-03 05:43:00,
2013-04-03 00:48:00,57.7,55.7,29.90,North,9,0.4,3.5,93,0.52,RA,,0.18,WeatherDisplay:10.37,2013-04-03 05:48:00,
2013-04-03 00:53:00,57.5,55.5,29.90,North,9,0.0,0.0,93,0.43,RA,,0.19,WeatherDisplay:10.37,2013-04-03 05:53:00,
2013-04-03 00:58:00,57.3,55.6,29.91,North,9,0.0,0.0,94,0.27,RA,,0.21,WeatherDisplay:10.37,2013-04-03 05:58:00,
2013-04-03 01:03:00,57.1,55.1,29.92,North,9,0.0,0.0,93,0.17,RA,,0.22,WeatherDisplay:10.37,2013-04-03 06:03:00,
2013-04-03 01:08:00,57.1,55.4,29.91,North,9,0.0,0.0,94,0.14,RA,,0.22,WeatherDisplay:10.37,2013-04-03 06:08:00,
2013-04-03 01:13:00,56.9,55.2,29.91,ENE,76,0.2,2.3,94,0.14,RA,,0.25,WeatherDisplay:10.37,2013-04-03 06:13:00,
2013-04-03 01:18:00,56.8,55.1,29.90,ENE,77,0.3,1.2,94,0.14,RA,,0.26,WeatherDisplay:10.37,2013-04-03 06:18:00,
2013-04-03 01:23:00,56.8,55.1,29.88,NE,41,0.7,1.2,94,0.14,RA,,0.26,WeatherDisplay:10.37,2013-04-03 06:23:00,
2013-04-03 01:28:00,56.7,55.0,29.88,ENE,65,0.3,2.3,94,0.14,RA,,0.28,WeatherDisplay:10.37,2013-04-03 06:28:00,
2013-04-03 01:33:00,56.5,54.8,29.86,ENE,74,2.0,3.5,94,0.15,RA,,0.30,WeatherDisplay:10.37,2013-04-03 06:33:00,
2013-04-03 01:38:00,56.4,54.7,29.85,NNE,32,2.8,3.5,94,0.16,RA,,0.30,WeatherDisplay:10.37,2013-04-03 06:38:00,
2013-04-03 01:43:00,56.2,54.5,29.83,East,85,2.2,4.6,94,0.15,RA,,0.32,WeatherDisplay:10.37,2013-04-03 06:43:00,
2013-04-03 01:48:00,56.1,54.4,29.82,NE,38,4.1,6.9,94,0.14,RA,,0.32,WeatherDisplay:10.37,2013-04-03 06:48:00,
2013-04-03 01:53:00,55.9,54.5,29.80,NNE,31,5.9,12.7,95,0.12,,,0.32,WeatherDisplay:10.37,2013-04-03 06:53:00,
2013-04-03 01:58:00,55.8,54.4,29.79,ENE,64,1.8,3.5,95,0.12,RA,,0.32,WeatherDisplay:10.37,2013-04-03 06:58:00,
2013-04-03 02:03:00,55.8,54.4,29.79,SE,138,0.5,3.5,95,0.11,RA,,0.32,WeatherDisplay:10.37,2013-04-03 07:03:00,
2013-04-03 02:08:00,55.9,54.5,29.78,ENE,57,2.3,3.5,95,0.10,CLR,,0.33,WeatherDisplay:10.37,2013-04-03 07:08:00,
2013-04-03 02:13:00,55.9,54.5,29.77,ENE,63,1.8,2.3,95,0.08,CLR,,0.32,WeatherDisplay:10.37,2013-04-03 07:13:00,
2013-04-03 02:18:00,55.9,54.5,29.75,NE,46,3.7,11.5,95,0.07,CLR,,0.33,WeatherDisplay:10.37,2013-04-03 07:18:00,
2013-04-03 02:23:00,55.8,54.4,29.74,NE,49,4.2,9.2,95,0.06,CLR,,0.33,WeatherDisplay:10.37,2013-04-03 07:23:00,
2013-04-03 02:28:00,55.9,54.5,29.73,NNE,19,1.2,2.3,95,0.05,CLR,,0.32,WeatherDisplay:10.37,2013-04-03 07:28:00,
2013-04-03 02:33:00,55.9,54.5,29.74,North,350,3.2,4.6,95,0.03,CLR,,0.33,WeatherDisplay:10.37,2013-04-03 07:33:00,
2013-04-03 02:38:00,55.8,54.4,29.75,North,355,4.3,5.8,95,0.02,CLR,,0.32,WeatherDisplay:10.37,2013-04-03 07:38:00,
2013-04-03 02:43:00,55.8,54.4,29.75,North,360,2.3,6.0,95,0.01,CLR,,0.33,WeatherDisplay:10.37,2013-04-03 07:43:00,
2013-04-03 02:48:00,55.8,54.4,29.77,NW,313,5.2,8.0,95,0.01,CLR,,0.33,WeatherDisplay:10.37,2013-04-03 07:48:00,
2013-04-03 02:53:00,55.6,54.2,29.77,North,360,2.9,5.8,95,0.01,CLR,,0.32,WeatherDisplay:10.37,2013-04-03 07:53:00,
2013-04-03 02:58:00,55.5,54.1,29.79,North,355,4.0,8.1,95,0.00,CLR,,0.32,WeatherDisplay:10.37,2013-04-03 07:58:00,
2013-04-03 03:04:00,55.5,54.1,29.81,South,170,0.5,3.5,95,0.00,CLR,,0.33,WeatherDisplay:10.37,2013-04-03 08:04:00,
2013-04-03 03:09:00,55.5,54.1,29.82,NW,315,1.2,2.0,95,0.00,CLR,,0.32,WeatherDisplay:10.37,2013-04-03 08:09:00,
2013-04-03 03:14:00,55.5,54.1,29.80,North,355,1.6,3.5,95,0.00,CLR,,0.33,WeatherDisplay:10.37,2013-04-03 08:14:00,
2013-04-03 03:19:00,55.6,54.2,29.80,NNW,342,0.5,3.5,95,0.00,CLR,,0.32,WeatherDisplay:10.37,2013-04-03 08:19:00,
2013-04-03 03:24:00,55.7,54.3,29.81,NW,315,2.5,3.5,95,0.00,CLR,,0.32,WeatherDisplay:10.37,2013-04-03 08:24:00,
2013-04-03 03:29:00,55.7,54.3,29.80,WNW,299,0.0,0.0,95,0.00,CLR,,0.32,WeatherDisplay:10.37,2013-04-03 08:29:00,
2013-04-03 03:34:00,55.7,54.3,29.80,North,351,0.0,0.0,95,0.00,CLR,,0.32,WeatherDisplay:10.37,2013-04-03 08:34:00,
2013-04-03 03:39:00,55.7,54.3,29.80,NW,311,0.2,1.2,95,0.00,CLR,,0.33,WeatherDisplay:10.37,2013-04-03 08:39:00,
2013-04-03 03:44:00,55.7,54.3,29.80,NNW,346,0.0,2.3,95,0.00,CLR,,0.32,WeatherDisplay:10.37,2013-04-03 08:44:00,
2013-04-03 03:49:00,55.7,54.3,29.80,NNW,346,0.0,1.2,95,0.00,CLR,,0.33,WeatherDisplay:10.37,2013-04-03 08:49:00,
2013-04-03 03:54:00,55.6,54.2,29.79,NNW,341,0.2,1.2,95,0.00,CLR,,0.32,WeatherDisplay:10.37,2013-04-03 08:54:00,
2013-04-03 03:59:00,55.5,54.4,29.79,NNW,341,0.0,0.0,96,0.00,CLR,,0.32,WeatherDisplay:10.37,2013-04-03 08:59:00,
2013-04-03 04:04:00,55.4,54.3,29.79,NNW,341,0.0,1.2,96,0.00,CLR,,0.33,WeatherDisplay:10.37,2013-04-03 09:04:00,
2013-04-03 04:09:00,55.4,54.3,29.79,NNW,341,0.0,0.0,96,0.00,CLR,,0.32,WeatherDisplay:10.37,2013-04-03 09:09:00,
2013-04-03 04:14:00,55.3,54.2,29.79,NNW,341,0.0,1.2,96,0.00,CLR,,0.33,WeatherDisplay:10.37,2013-04-03 09:14:00,
2013-04-03 04:19:00,55.3,54.2,29.79,NNW,341,0.0,0.0,96,0.00,CLR,,0.32,WeatherDisplay:10.37,2013-04-03 09:19:00,
2013-04-03 04:24:00,55.2,54.1,29.80,NNW,341,0.0,0.0,96,0.00,CLR,,0.32,WeatherDisplay:10.37,2013-04-03 09:24:00,
2013-04-03 04:29:00,55.2,53.8,29.80,NNW,341,1.3,3.0,95,0.00,CLR,,0.33,WeatherDisplay:10.37,2013-04-03 09:29:00,
2013-04-03 04:34:00,55.1,53.7,29.81,NNW,336,0.0,0.0,95,0.00,CLR,,0.32,WeatherDisplay:10.37,2013-04-03 09:34:00,
2013-04-03 04:39:00,55.1,53.7,29.81,NNW,338,0.3,3.5,95,0.00,CLR,,0.33,WeatherDisplay:10.37,2013-04-03 09:39:00,
2013-04-03 04:44:00,55.1,53.7,29.81,NNW,338,0.8,3.5,95,0.00,CLR,,0.33,WeatherDisplay:10.37,2013-04-03 09:44:00,
2013-04-03 04:49:00,55.1,53.7,29.81,NW,315,1.2,2.3,95,0.00,CLR,,0.33,WeatherDisplay:10.37,2013-04-03 09:49:00,
2013-04-03 04:54:00,55.0,53.9,29.82,NW,315,1.9,3.5,96,0.00,CLR,,0.33,WeatherDisplay:10.37,2013-04-03 09:54:00,
2013-04-03 04:59:00,55.0,53.9,29.82,NNW,342,1.5,2.3,96,0.00,CLR,,0.32,WeatherDisplay:10.37,2013-04-03 09:59:00,
2013-04-03 05:04:00,55.0,53.9,29.82,NW,309,0.7,2.3,96,0.00,CLR,,0.32,WeatherDisplay:10.37,2013-04-03 10:04:00,
2013-04-03 05:09:00,55.0,53.9,29.82,WNW,296,0.1,1.0,96,0.00,CLR,,0.33,WeatherDisplay:10.37,2013-04-03 10:09:00,
2013-04-03 05:14:00,55.0,53.9,29.82,WNW,298,1.4,3.5,96,0.00,CLR,,0.33,WeatherDisplay:10.37,2013-04-03 10:14:00,
2013-04-03 05:19:00,55.0,53.9,29.83,NW,306,0.8,3.5,96,0.00,CLR,,0.33,WeatherDisplay:10.37,2013-04-03 10:19:00,
2013-04-03 05:24:00,55.0,53.9,29.83,NW,311,0.0,3.5,96,0.00,CLR,,0.32,WeatherDisplay:10.37,2013-04-03 10:24:00,
2013-04-03 05:29:00,55.0,53.9,29.83,North,360,1.6,5.0,96,0.00,CLR,,0.33,WeatherDisplay:10.37,2013-04-03 10:29:00,
2013-04-03 05:34:00,55.0,53.9,29.83,WNW,303,0.1,2.3,96,0.00,CLR,,0.33,WeatherDisplay:10.37,2013-04-03 10:34:00,
2013-04-03 05:39:00,55.0,53.9,29.84,NW,320,2.5,3.5,96,0.00,CLR,,0.32,WeatherDisplay:10.37,2013-04-03 10:39:00,
2013-04-03 05:44:00,55.1,54.0,29.84,North,355,2.0,2.3,96,0.00,CLR,,0.32,WeatherDisplay:10.37,2013-04-03 10:44:00,
2013-04-03 05:49:00,55.1,54.0,29.84,North,351,1.3,4.0,96,0.00,CLR,,0.33,WeatherDisplay:10.37,2013-04-03 10:49:00,
2013-04-03 05:54:00,55.1,54.0,29.84,NW,325,0.0,2.3,96,0.00,CLR,,0.32,WeatherDisplay:10.37,2013-04-03 10:54:00,
2013-04-03 05:59:00,55.1,54.0,29.84,NW,326,3.7,4.6,96,0.00,CLR,,0.33,WeatherDisplay:10.37,2013-04-03 10:59:00,
2013-04-03 06:04:00,55.1,54.0,29.85,NNW,334,1.2,3.5,96,0.00,CLR,,0.33,WeatherDisplay:10.37,2013-04-03 11:04:00,
2013-04-03 06:09:00,55.1,54.0,29.85,NNW,345,2.5,4.6,96,0.00,CLR,,0.33,WeatherDisplay:10.37,2013-04-03 11:09:00,
2013-04-03 06:14:00,55.1,54.0,29.86,NNW,348,1.4,3.5,96,0.00,CLR,,0.33,WeatherDisplay:10.37,2013-04-03 11:14:00,
2013-04-03 06:19:00,55.1,54.0,29.86,NNW,347,1.1,2.3,96,0.00,CLR,,0.32,WeatherDisplay:10.37,2013-04-03 11:19:00,
2013-04-03 06:24:00,55.1,54.0,29.87,NNW,340,0.0,0.0,96,0.00,CLR,,0.32,WeatherDisplay:10.37,2013-04-03 11:24:00,
2013-04-03 06:29:00,55.1,54.0,29.86,NNW,343,2.2,3.5,96,0.00,CLR,,0.33,WeatherDisplay:10.37,2013-04-03 11:29:00,
2013-04-03 06:34:00,55.1,54.0,29.86,North,9,1.0,1.2,96,0.00,CLR,,0.32,WeatherDisplay:10.37,2013-04-03 11:34:00,
2013-04-03 06:39:00,55.1,54.0,29.86,North,5,3.0,3.5,96,0.00,CLR,,0.33,WeatherDisplay:10.37,2013-04-03 11:39:00,
2013-04-03 06:44:00,55.1,54.0,29.87,NNW,333,2.9,4.0,96,0.00,CLR,,0.32,WeatherDisplay:10.37,2013-04-03 11:44:00,
2013-04-03 06:49:00,55.2,54.1,29.87,NW,324,1.1,3.5,96,0.00,CLR,,0.32,WeatherDisplay:10.37,2013-04-03 11:49:00,
2013-04-03 06:54:00,55.3,54.2,29.87,NNW,344,0.4,2.3,96,0.00,CLR,,0.32,WeatherDisplay:10.37,2013-04-03 11:54:00,
2013-04-03 06:59:00,55.3,54.2,29.87,North,5,1.5,3.5,96,0.00,CLR,,0.33,WeatherDisplay:10.37,2013-04-03 11:59:00,
2013-04-03 07:04:00,55.4,54.3,29.88,North,355,1.4,2.3,96,0.00,CLR,,0.33,WeatherDisplay:10.37,2013-04-03 12:04:00,
2013-04-03 07:09:00,55.4,54.3,29.88,NNE,15,2.3,3.5,96,0.00,CLR,,0.33,WeatherDisplay:10.37,2013-04-03 12:09:00,
2013-04-03 07:14:00,55.4,54.3,29.88,North,5,0.6,1.2,96,0.00,CLR,,0.33,WeatherDisplay:10.37,2013-04-03 12:14:00,
2013-04-03 07:19:00,55.4,54.3,29.89,NNW,346,1.1,2.3,96,0.00,CLR,,0.33,WeatherDisplay:10.37,2013-04-03 12:19:00,
2013-04-03 07:24:00,55.3,54.2,29.88,NNW,340,0.5,2.3,96,0.00,CLR,,0.33,WeatherDisplay:10.37,2013-04-03 12:24:00,
2013-04-03 07:29:00,55.3,54.2,29.88,NNW,328,1.0,3.5,96,0.00,CLR,,0.33,WeatherDisplay:10.37,2013-04-03 12:29:00,
2013-04-03 07:34:00,55.2,53.8,29.89,North,5,0.1,1.2,95,0.00,CLR,,0.32,WeatherDisplay:10.37,2013-04-03 12:34:00,
2013-04-03 07:39:00,55.1,53.7,29.89,NNW,327,0.1,1.2,95,0.00,CLR,,0.33,WeatherDisplay:10.37,2013-04-03 12:39:00,
2013-04-03 07:44:00,55.0,53.6,29.90,West,279,0.6,3.5,95,0.00,CLR,,0.32,WeatherDisplay:10.37,2013-04-03 12:44:00,
2013-04-03 07:49:00,55.1,53.7,29.90,NW,315,0.1,1.2,95,0.00,CLR,,0.33,WeatherDisplay:10.37,2013-04-03 12:49:00,
2013-04-03 07:54:00,55.1,53.7,29.90,NNE,16,0.3,1.2,95,0.00,CLR,,0.33,WeatherDisplay:10.37,2013-04-03 12:54:00,
2013-04-03 07:59:00,55.0,53.6,29.91,ENE,59,0.0,0.0,95,0.00,CLR,,0.32,WeatherDisplay:10.37,2013-04-03 12:59:00,
2013-04-03 08:04:00,55.1,53.7,29.92,ENE,67,0.1,1.2,95,0.00,CLR,,0.33,WeatherDisplay:10.37,2013-04-03 13:04:00,
2013-04-03 08:09:00,55.1,53.7,29.92,ENE,66,0.6,2.3,95,0.00,CLR,,0.32,WeatherDisplay:10.37,2013-04-03 13:09:00,
2013-04-03 08:14:00,55.1,53.7,29.92,ENE,63,0.4,1.2,95,0.00,CLR,,0.33,WeatherDisplay:10.37,2013-04-03 13:14:00,
2013-04-03 08:19:00,55.1,53.7,29.92,North,349,0.9,2.3,95,0.00,CLR,,0.33,WeatherDisplay:10.37,2013-04-03 13:19:00,
2013-04-03 08:24:00,55.2,53.8,29.92,WNW,301,2.1,3.5,95,0.00,CLR,,0.32,WeatherDisplay:10.37,2013-04-03 13:24:00,
2013-04-03 08:29:00,55.1,53.7,29.92,North,355,2.2,5.0,95,0.00,CLR,,0.33,WeatherDisplay:10.37,2013-04-03 13:29:00,
2013-04-03 08:34:00,54.7,53.0,29.92,NNW,348,2.8,4.6,94,0.00,CLR,,0.33,WeatherDisplay:10.37,2013-04-03 13:34:00,
2013-04-03 08:39:00,54.4,52.7,29.92,North,5,1.4,3.5,94,0.00,CLR,,0.32,WeatherDisplay:10.37,2013-04-03 13:39:00,
2013-04-03 08:44:00,54.3,52.6,29.93,North,5,1.0,3.5,94,0.00,CLR,,0.33,WeatherDisplay:10.37,2013-04-03 13:44:00,
2013-04-03 08:49:00,54.2,52.5,29.93,WSW,246,1.1,2.3,94,0.00,CLR,,0.33,WeatherDisplay:10.37,2013-04-03 13:49:00,
2013-04-03 08:54:00,54.2,52.5,29.93,NNE,32,1.7,3.5,94,0.00,CLR,,0.32,WeatherDisplay:10.37,2013-04-03 13:54:00,
2013-04-03 08:59:00,54.3,52.6,29.93,North,360,2.5,3.5,94,0.00,CLR,,0.32,WeatherDisplay:10.37,2013-04-03 13:59:00,
2013-04-03 09:04:00,54.2,52.5,29.93,North,360,0.1,1.2,94,0.00,CLR,,0.33,WeatherDisplay:10.37,2013-04-03 14:04:00,
2013-04-03 09:09:00,54.2,52.5,29.93,NNW,348,2.9,5.8,94,0.00,CLR,,0.33,WeatherDisplay:10.37,2013-04-03 14:09:00,
2013-04-03 09:14:00,54.1,52.1,29.94,North,355,0.8,3.5,93,0.00,CLR,,0.32,WeatherDisplay:10.37,2013-04-03 14:14:00,
2013-04-03 09:19:00,54.0,52.0,29.94,North,11,2.0,3.5,93,0.00,CLR,,0.32,WeatherDisplay:10.37,2013-04-03 14:19:00,
2013-04-03 09:24:00,53.9,51.9,29.95,North,5,2.9,6.9,93,0.00,CLR,,0.33,WeatherDisplay:10.37,2013-04-03 14:24:00,
2013-04-03 09:29:00,53.7,51.4,29.96,North,350,3.0,4.0,92,0.00,CLR,,0.33,WeatherDisplay:10.37,2013-04-03 14:29:00,
2013-04-03 09:34:00,53.6,51.3,29.97,NNW,347,2.6,3.5,92,0.00,CLR,,0.32,WeatherDisplay:10.37,2013-04-03 14:34:00,
2013-04-03 09:39:00,53.5,51.2,29.98,NNW,332,3.9,4.6,92,0.00,CLR,,0.32,WeatherDisplay:10.37,2013-04-03 14:39:00,
2013-04-03 09:44:00,53.3,51.0,29.97,NNW,329,3.5,5.8,92,0.00,CLR,,0.33,WeatherDisplay:10.37,2013-04-03 14:44:00,
2013-04-03 09:49:00,53.2,50.6,29.98,NNW,340,1.3,3.5,91,0.00,CLR,,0.32,WeatherDisplay:10.37,2013-04-03 14:49:00,
2013-04-03 09:54:00,53.1,50.5,29.97,North,355,4.1,9.2,91,0.00,CLR,,0.33,WeatherDisplay:10.37,2013-04-03 14:54:00,
2013-04-03 09:59:00,53.0,50.7,29.96,North,355,3.1,4.6,92,0.00,CLR,,0.33,WeatherDisplay:10.37,2013-04-03 14:59:00,
2013-04-03 10:04:00,53.1,50.8,29.96,North,355,2.5,3.5,92,0.00,CLR,,0.32,WeatherDisplay:10.37,2013-04-03 15:04:00,
2013-04-03 10:09:00,53.2,50.9,29.97,NNW,338,1.1,4.0,92,0.00,CLR,,0.32,WeatherDisplay:10.37,2013-04-03 15:09:00,
2013-04-03 10:14:00,53.1,50.8,29.99,NNW,330,4.7,5.8,92,0.00,CLR,,0.33,WeatherDisplay:10.37,2013-04-03 15:14:00,
2013-04-03 10:19:00,53.0,50.7,30.00,North,5,3.3,7.0,92,0.00,CLR,,0.32,WeatherDisplay:10.37,2013-04-03 15:19:00,
2013-04-03 10:24:00,53.0,50.7,29.99,North,350,6.1,9.2,92,0.00,CLR,,0.32,WeatherDisplay:10.37,2013-04-03 15:24:00,
2013-04-03 10:29:00,53.0,50.7,29.98,NNW,344,3.7,6.9,92,0.00,CLR,,0.33,WeatherDisplay:10.37,2013-04-03 15:29:00,
2013-04-03 10:34:00,53.0,50.7,29.97,NNW,333,4.0,4.0,92,0.00,CLR,,0.32,WeatherDisplay:10.37,2013-04-03 15:34:00,
2013-04-03 10:39:00,53.0,50.7,29.96,NNW,330,1.9,4.6,92,0.00,CLR,,0.33,WeatherDisplay:10.37,2013-04-03 15:39:00,
2013-04-03 10:44:00,53.2,50.9,29.95,NNE,14,4.1,5.8,92,0.00,CLR,,0.33,WeatherDisplay:10.37,2013-04-03 15:44:00,
2013-04-03 10:49:00,53.1,50.8,29.95,NNE,15,0.8,3.5,92,0.00,CLR,,0.32,WeatherDisplay:10.37,2013-04-03 15:49:00,
2013-04-03 10:54:00,53.0,50.4,29.95,North,355,2.3,5.8,91,0.00,CLR,,0.33,WeatherDisplay:10.37,2013-04-03 15:54:00,
2013-04-03 10:59:00,53.0,50.4,29.95,NNW,334,1.0,4.0,91,0.00,CLR,,0.32,WeatherDisplay:10.37,2013-04-03 15:59:00,
2013-04-03 11:04:00,52.9,50.3,29.95,NW,320,2.3,2.3,91,0.00,CLR,,0.32,WeatherDisplay:10.37,2013-04-03 16:04:00,
2013-04-03 11:09:00,52.8,50.2,29.95,NNW,348,1.6,3.5,91,0.00,CLR,,0.33,WeatherDisplay:10.37,2013-04-03 16:09:00,
2013-04-03 11:14:00,52.8,50.2,29.96,NNW,344,0.2,3.5,91,0.00,CLR,,0.32,WeatherDisplay:10.37,2013-04-03 16:14:00,
2013-04-03 11:19:00,52.9,50.3,29.96,NNW,344,0.0,0.0,91,0.00,CLR,,0.32,WeatherDisplay:10.37,2013-04-03 16:19:00,
2013-04-03 11:25:00,52.9,50.3,29.95,East,94,0.0,5.8,91,0.00,CLR,,0.33,WeatherDisplay:10.37,2013-04-03 16:25:00,
2013-04-03 11:30:00,53.0,50.7,29.95,ENE,74,0.0,0.0,92,0.00,CLR,,0.32,WeatherDisplay:10.37,2013-04-03 16:30:00,
2013-04-03 11:35:00,53.0,50.7,29.94,North,11,0.0,0.0,92,0.00,CLR,,0.32,WeatherDisplay:10.37,2013-04-03 16:35:00,
2013-04-03 11:40:00,52.8,50.5,29.92,ENE,76,3.0,6.0,92,0.00,CLR,,0.33,WeatherDisplay:10.37,2013-04-03 16:40:00,
2013-04-03 11:45:00,52.7,50.4,29.90,ENE,74,1.7,3.5,92,0.00,CLR,,0.33,WeatherDisplay:10.37,2013-04-03 16:45:00,
2013-04-03 11:50:00,52.6,50.6,29.90,NE,40,1.4,3.5,93,0.00,CLR,,0.33,WeatherDisplay:10.37,2013-04-03 16:50:00,
2013-04-03 11:55:00,52.5,50.5,29.90,NNE,28,1.4,3.5,93,0.00,CLR,,0.32,WeatherDisplay:10.37,2013-04-03 16:55:00,
2013-04-03 12:00:00,52.6,50.6,29.89,ENE,66,0.0,2.3,93,0.00,CLR,,0.32,WeatherDisplay:10.37,2013-04-03 17:00:00,
2013-04-03 12:05:00,52.6,50.6,29.88,NE,47,2.4,5.0,93,0.00,CLR,,0.33,WeatherDisplay:10.37,2013-04-03 17:05:00,
2013-04-03 12:10:00,52.6,50.6,29.94,WNW,300,2.8,4.6,93,0.00,CLR,,0.33,WeatherDisplay:10.37,2013-04-03 17:10:00,
2013-04-03 12:15:00,52.7,51.0,29.99,WNW,292,4.1,8.1,94,0.00,CLR,,0.33,WeatherDisplay:10.37,2013-04-03 17:15:00,
2013-04-03 12:20:00,53.0,51.3,29.98,WNW,298,3.7,4.6,94,0.00,CLR,,0.32,WeatherDisplay:10.37,2013-04-03 17:20:00,
2013-04-03 12:25:00,53.1,51.4,29.94,NW,304,0.0,3.5,94,0.01,RA,,0.34,WeatherDisplay:10.37,2013-04-03 17:25:00,
2013-04-03 12:30:00,53.2,51.5,29.98,WNW,292,0.6,3.5,94,0.02,RA,,0.35,WeatherDisplay:10.37,2013-04-03 17:30:00,
2013-04-03 12:35:00,53.3,51.6,29.91,NNE,16,2.8,3.5,94,0.02,RA,,0.34,WeatherDisplay:10.37,2013-04-03 17:35:00,
2013-04-03 12:40:00,53.1,51.4,29.93,West,272,4.0,4.0,94,0.02,,,0.34,WeatherDisplay:10.37,2013-04-03 17:40:00,
2013-04-03 12:45:00,53.0,51.3,29.97,WNW,292,3.5,5.8,94,0.02,CLR,,0.34,WeatherDisplay:10.37,2013-04-03 17:45:00,
2013-04-03 12:50:00,52.7,51.0,29.97,West,275,1.2,2.3,94,0.02,CLR,,0.34,WeatherDisplay:10.37,2013-04-03 17:50:00,
2013-04-03 12:55:00,52.6,50.9,29.95,NNW,330,1.8,3.5,94,0.02,CLR,,0.35,WeatherDisplay:10.37,2013-04-03 17:55:00,
2013-04-03 13:00:00,52.5,50.8,29.98,NW,311,0.4,2.3,94,0.02,CLR,,0.34,WeatherDisplay:10.37,2013-04-03 18:00:00,
2013-04-03 13:05:00,52.4,50.7,29.98,NW,323,1.0,3.5,94,0.02,CLR,,0.36,WeatherDisplay:10.37,2013-04-03 18:05:00,
2013-04-03 13:12:00,52.4,50.7,29.97,NNE,16,0.4,2.3,94,0.03,RA,,0.35,WeatherDisplay:10.37,2013-04-03 18:12:00,
2013-04-03 13:17:00,52.4,50.7,29.97,NNW,348,0.5,2.3,94,0.03,,,0.35,WeatherDisplay:10.37,2013-04-03 18:17:00,
2013-04-03 13:22:00,52.4,50.7,29.98,WNW,300,2.5,3.5,94,0.03,CLR,,0.35,WeatherDisplay:10.37,2013-04-03 18:22:00,
2013-04-03 13:27:00,52.5,51.1,29.98,NNW,327,3.4,5.0,95,0.02,CLR,,0.36,WeatherDisplay:10.37,2013-04-03 18:27:00,
2013-04-03 13:32:00,52.4,51.0,29.98,NW,318,1.1,4.6,95,0.01,CLR,,0.36,WeatherDisplay:10.37,2013-04-03 18:32:00,
2013-04-03 13:37:00,52.4,51.0,29.97,NNW,344,2.4,3.5,95,0.01,CLR,,0.36,WeatherDisplay:10.37,2013-04-03 18:37:00,
2013-04-03 13:42:00,52.4,51.0,29.97,NW,314,3.1,5.8,95,0.01,CLR,,0.36,WeatherDisplay:10.37,2013-04-03 18:42:00,
2013-04-03 13:47:00,52.4,51.0,29.97,NW,309,4.7,4.7,95,0.01,CLR,,0.35,WeatherDisplay:10.37,2013-04-03 18:47:00,
2013-04-03 13:52:00,52.3,50.9,29.95,North,5,2.9,5.0,95,0.01,CLR,,0.36,WeatherDisplay:10.37,2013-04-03 18:52:00,
2013-04-03 13:58:00,52.2,50.5,29.95,NW,304,2.8,5.8,94,0.01,CLR,,0.36,WeatherDisplay:10.37,2013-04-03 18:58:00,
2013-04-03 14:03:00,52.1,50.4,29.95,North,5,1.8,3.5,94,0.01,CLR,,0.35,WeatherDisplay:10.37,2013-04-03 19:03:00,
2013-04-03 14:08:00,52.1,50.4,29.94,NW,315,2.1,3.5,94,0.00,CLR,,0.36,WeatherDisplay:10.37,2013-04-03 19:08:00,
2013-04-03 14:13:00,52.0,50.3,29.95,NW,323,5.0,5.8,94,0.00,CLR,,0.35,WeatherDisplay:10.37,2013-04-03 19:13:00,
2013-04-03 14:18:00,51.9,50.2,29.95,WNW,296,3.0,3.5,94,0.00,CLR,,0.35,WeatherDisplay:10.37,2013-04-03 19:18:00,
2013-04-03 14:23:00,51.9,50.2,29.95,NW,315,3.0,3.5,94,0.00,CLR,,0.35,WeatherDisplay:10.37,2013-04-03 19:23:00,
2013-04-03 14:28:00,52.0,50.3,29.96,NNW,339,2.8,4.6,94,0.00,CLR,,0.36,WeatherDisplay:10.37,2013-04-03 19:28:00,
2013-04-03 14:33:00,52.0,50.3,29.96,WNW,286,1.1,4.6,94,0.00,CLR,,0.35,WeatherDisplay:10.37,2013-04-03 19:33:00,
2013-04-03 14:38:00,52.1,50.4,29.96,NW,305,6.2,8.1,94,0.00,CLR,,0.35,WeatherDisplay:10.37,2013-04-03 19:38:00,
2013-04-03 14:43:00,52.0,50.0,29.95,North,9,1.0,1.2,93,0.00,CLR,,0.35,WeatherDisplay:10.37,2013-04-03 19:43:00,
2013-04-03 14:48:00,51.9,49.9,29.97,NW,318,0.2,3.5,93,0.00,CLR,,0.36,WeatherDisplay:10.37,2013-04-03 19:48:00,
2013-04-03 14:53:00,52.0,50.0,29.96,NNW,333,2.7,3.5,93,0.00,CLR,,0.35,WeatherDisplay:10.37,2013-04-03 19:53:00,
2013-04-03 14:59:00,52.1,50.1,29.96,NNW,340,1.4,4.0,93,0.00,CLR,,0.36,WeatherDisplay:10.37,2013-04-03 19:59:00,
2013-04-03 15:04:00,52.0,50.0,29.96,North,360,2.8,4.0,93,0.00,CLR,,0.36,WeatherDisplay:10.37,2013-04-03 20:04:00,
2013-04-03 15:09:00,51.9,49.9,29.96,NNW,341,1.6,4.6,93,0.00,CLR,,0.36,WeatherDisplay:10.37,2013-04-03 20:09:00,
2013-04-03 15:14:00,51.9,49.9,29.96,North,350,1.7,3.5,93,0.05,RA,,0.41,WeatherDisplay:10.37,2013-04-03 20:14:00,
2013-04-03 15:19:00,51.8,49.8,29.95,NW,316,1.4,3.5,93,0.06,RA,,0.41,WeatherDisplay:10.37,2013-04-03 20:19:00,
2013-04-03 15:25:00,51.7,49.7,29.95,NW,323,1.8,2.3,93,0.06,RA,,0.41,WeatherDisplay:10.37,2013-04-03 20:25:00,
2013-04-03 15:30:00,51.7,49.7,29.96,North,9,2.3,5.0,93,0.06,CLR,,0.42,WeatherDisplay:10.37,2013-04-03 20:30:00,
2013-04-03 15:35:00,51.6,49.6,29.97,NW,320,1.4,2.3,93,0.06,CLR,,0.42,WeatherDisplay:10.37,2013-04-03 20:35:00,
2013-04-03 15:40:00,51.5,49.5,29.96,NW,317,1.6,2.3,93,0.06,CLR,,0.42,WeatherDisplay:10.37,2013-04-03 20:40:00,
2013-04-03 15:45:00,51.5,49.8,29.96,West,276,1.0,2.3,94,0.06,CLR,,0.41,WeatherDisplay:10.37,2013-04-03 20:45:00,
2013-04-03 15:50:00,51.5,49.8,29.97,WNW,290,1.2,3.5,94,0.07,RA,,0.43,WeatherDisplay:10.37,2013-04-03 20:50:00,
2013-04-03 15:55:00,51.4,49.7,29.98,NW,304,1.1,3.5,94,0.07,RA,,0.43,WeatherDisplay:10.37,2013-04-03 20:55:00,
2013-04-03 16:01:00,51.3,49.6,29.97,NW,324,3.0,3.5,94,0.07,CLR,,0.42,WeatherDisplay:10.37,2013-04-03 21:01:00,
2013-04-03 16:06:00,51.2,49.5,29.96,NNW,346,2.0,3.5,94,0.07,CLR,,0.42,WeatherDisplay:10.37,2013-04-03 21:06:00,
2013-04-03 16:11:00,51.2,49.5,29.98,WNW,284,1.5,3.5,94,0.06,CLR,,0.43,WeatherDisplay:10.37,2013-04-03 21:11:00,
2013-04-03 16:16:00,51.2,49.5,29.97,WNW,291,1.5,3.5,94,0.02,CLR,,0.42,WeatherDisplay:10.37,2013-04-03 21:16:00,
2013-04-03 16:21:00,51.2,49.5,29.96,NNW,339,1.7,3.5,94,0.01,CLR,,0.43,WeatherDisplay:10.37,2013-04-03 21:21:00,
2013-04-03 16:26:00,51.3,49.6,29.98,WNW,298,1.8,3.5,94,0.01,CLR,,0.43,WeatherDisplay:10.37,2013-04-03 21:26:00,
2013-04-03 16:31:00,51.3,49.6,29.98,NNW,348,1.8,3.5,94,0.01,CLR,,0.42,WeatherDisplay:10.37,2013-04-03 21:31:00,
2013-04-03 16:36:00,51.2,49.5,29.99,NW,323,0.0,0.0,94,0.01,CLR,,0.42,WeatherDisplay:10.37,2013-04-03 21:36:00,
2013-04-03 16:41:00,50.9,49.2,29.99,NNW,342,3.2,5.8,94,0.01,CLR,,0.43,WeatherDisplay:10.37,2013-04-03 21:41:00,
2013-04-03 16:46:00,50.6,48.9,29.98,NW,315,2.6,3.5,94,0.01,CLR,,0.42,WeatherDisplay:10.37,2013-04-03 21:46:00,
2013-04-03 16:51:00,50.5,48.8,29.98,NNW,348,1.8,3.5,94,0.01,RA,,0.43,WeatherDisplay:10.37,2013-04-03 21:51:00,
2013-04-03 16:56:00,50.4,48.7,29.97,NNW,346,2.9,5.8,94,0.02,RA,,0.45,WeatherDisplay:10.37,2013-04-03 21:56:00,
2013-04-03 17:01:00,50.2,48.5,29.99,WNW,296,2.1,4.6,94,0.02,RA,,0.45,WeatherDisplay:10.37,2013-04-03 22:01:00,
2013-04-03 17:06:00,50.1,48.4,29.98,NW,315,1.2,3.5,94,0.02,CLR,,0.44,WeatherDisplay:10.37,2013-04-03 22:06:00,
2013-04-03 17:11:00,50.0,48.3,29.98,NNW,344,1.1,3.5,94,0.02,CLR,,0.45,WeatherDisplay:10.37,2013-04-03 22:11:00,
2013-04-03 17:16:00,50.0,48.3,29.99,NNW,329,2.0,2.3,94,0.02,CLR,,0.44,WeatherDisplay:10.37,2013-04-03 22:16:00,
2013-04-03 17:21:00,50.0,48.3,29.99,NNW,333,2.1,3.5,94,0.02,CLR,,0.44,WeatherDisplay:10.37,2013-04-03 22:21:00,
2013-04-03 17:26:00,50.0,48.3,29.99,North,355,2.7,6.0,94,0.02,CLR,,0.45,WeatherDisplay:10.37,2013-04-03 22:26:00,
2013-04-03 17:31:00,49.9,48.2,29.99,North,355,0.7,3.0,94,0.02,CLR,,0.45,WeatherDisplay:10.37,2013-04-03 22:31:00,
2013-04-03 17:36:00,49.9,48.2,29.99,NNW,346,1.2,3.5,94,0.02,CLR,,0.45,WeatherDisplay:10.37,2013-04-03 22:36:00,
2013-04-03 17:41:00,49.9,48.2,29.99,North,349,2.0,4.6,94,0.02,CLR,,0.44,WeatherDisplay:10.37,2013-04-03 22:41:00,
2013-04-03 17:47:00,49.9,48.2,29.99,North,360,2.0,5.8,94,0.02,CLR,,0.44,WeatherDisplay:10.37,2013-04-03 22:47:00,
2013-04-03 17:52:00,50.0,48.3,29.98,North,355,2.5,3.5,94,0.01,CLR,,0.45,WeatherDisplay:10.37,2013-04-03 22:52:00,
2013-04-03 17:57:00,50.0,48.3,29.98,ESE,111,1.6,3.5,94,0.00,CLR,,0.45,WeatherDisplay:10.37,2013-04-03 22:57:00,
2013-04-03 18:02:00,50.2,48.5,29.98,East,87,0.0,0.0,94,0.00,CLR,,0.44,WeatherDisplay:10.37,2013-04-03 23:02:00,
2013-04-03 18:07:00,50.4,48.7,29.98,NNW,329,1.5,4.0,94,0.00,CLR,,0.45,WeatherDisplay:10.37,2013-04-03 23:07:00,
2013-04-03 18:12:00,50.5,48.8,29.98,NNW,343,1.0,2.3,94,0.00,CLR,,0.44,WeatherDisplay:10.37,2013-04-03 23:12:00,
2013-04-03 18:17:00,50.4,48.7,29.99,WNW,294,1.3,3.5,94,0.00,CLR,,0.45,WeatherDisplay:10.37,2013-04-03 23:17:00,
2013-04-03 18:22:00,50.4,48.7,29.99,NW,316,2.3,4.0,94,0.00,CLR,,0.45,WeatherDisplay:10.37,2013-04-03 23:22:00,
2013-04-03 18:27:00,50.4,48.7,29.99,NW,317,0.2,2.3,94,0.00,CLR,,0.45,WeatherDisplay:10.37,2013-04-03 23:27:00,
2013-04-03 18:32:00,50.5,48.8,29.99,North,355,1.3,2.3,94,0.00,CLR,,0.44,WeatherDisplay:10.37,2013-04-03 23:32:00,
2013-04-03 18:37:00,50.4,48.7,29.99,NNW,339,2.8,3.5,94,0.00,CLR,,0.44,WeatherDisplay:10.37,2013-04-03 23:37:00,
2013-04-03 18:42:00,50.3,48.6,29.99,NNW,339,3.6,4.6,94,0.00,CLR,,0.45,WeatherDisplay:10.37,2013-04-03 23:42:00,
2013-04-03 18:47:00,50.3,48.6,29.99,North,350,2.0,3.5,94,0.00,CLR,,0.44,WeatherDisplay:10.37,2013-04-03 23:47:00,
2013-04-03 18:52:00,50.2,48.5,30.00,NW,319,2.2,4.6,94,0.00,CLR,,0.45,WeatherDisplay:10.37,2013-04-03 23:52:00,
2013-04-03 18:57:00,50.2,48.5,30.00,North,355,4.0,5.8,94,0.00,CLR,,0.44,WeatherDisplay:10.37,2013-04-03 23:57:00,
2013-04-03 19:02:00,50.2,48.5,30.00,North,360,0.8,3.5,94,0.00,CLR,,0.45,WeatherDisplay:10.37,2013-04-04 00:02:00,
2013-04-03 19:07:00,50.2,48.5,30.00,NNW,330,2.7,3.5,94,0.00,CLR,,0.45,WeatherDisplay:10.37,2013-04-04 00:07:00,
2013-04-03 19:12:00,50.1,48.4,30.01,NNW,337,2.5,4.0,94,0.00,CLR,,0.45,WeatherDisplay:10.37,2013-04-04 00:12:00,
2013-04-03 19:17:00,50.0,48.3,30.01,North,360,0.1,1.2,94,0.00,CLR,,0.44,WeatherDisplay:10.37,2013-04-04 00:17:00,
2013-04-03 19:22:00,50.0,48.3,30.01,NNW,338,0.6,4.0,94,0.00,CLR,,0.44,WeatherDisplay:10.37,2013-04-04 00:22:00,
2013-04-03 19:27:00,50.0,48.1,30.02,NNW,335,1.4,3.5,93,0.00,CLR,,0.45,WeatherDisplay:10.37,2013-04-04 00:27:00,
2013-04-03 19:32:00,49.9,48.0,30.02,NNW,336,1.8,4.0,93,0.00,CLR,,0.45,WeatherDisplay:10.37,2013-04-04 00:32:00,
2013-04-03 19:37:00,49.9,48.0,30.02,NW,326,2.2,3.5,93,0.00,CLR,,0.44,WeatherDisplay:10.37,2013-04-04 00:37:00,
2013-04-03 19:42:00,49.9,48.0,30.02,North,355,1.9,3.5,93,0.00,CLR,,0.45,WeatherDisplay:10.37,2013-04-04 00:42:00,
2013-04-03 19:47:00,49.9,48.0,30.03,NNW,336,0.8,3.5,93,0.00,CLR,,0.44,WeatherDisplay:10.37,2013-04-04 00:47:00,
2013-04-03 19:52:00,49.9,48.0,30.03,NNW,336,0.0,2.3,93,0.00,CLR,,0.45,WeatherDisplay:10.37,2013-04-04 00:52:00,
2013-04-03 19:57:00,49.8,47.9,30.03,North,360,3.0,4.6,93,0.00,CLR,,0.45,WeatherDisplay:10.37,2013-04-04 00:57:00,
2013-04-03 20:02:00,49.7,47.8,30.03,NNW,342,0.6,3.5,93,0.00,CLR,,0.45,WeatherDisplay:10.37,2013-04-04 01:02:00,
2013-04-03 20:07:00,49.7,47.8,30.03,NNW,342,0.0,2.3,93,0.00,CLR,,0.44,WeatherDisplay:10.37,2013-04-04 01:07:00,
2013-04-03 20:12:00,49.8,47.9,30.03,North,355,0.0,0.0,93,0.00,CLR,,0.44,WeatherDisplay:10.37,2013-04-04 01:12:00,
2013-04-03 20:17:00,49.7,47.8,30.03,North,5,2.2,4.0,93,0.00,CLR,,0.44,WeatherDisplay:10.37,2013-04-04 01:17:00,
2013-04-03 20:22:00,49.7,47.8,30.03,North,5,3.4,4.6,93,0.00,CLR,,0.45,WeatherDisplay:10.37,2013-04-04 01:22:00,
2013-04-03 20:27:00,49.7,47.8,30.03,North,360,1.3,2.3,93,0.00,CLR,,0.45,WeatherDisplay:10.37,2013-04-04 01:27:00,
2013-04-03 20:32:00,49.6,47.4,30.04,NNW,342,2.0,3.5,92,0.00,CLR,,0.44,WeatherDisplay:10.37,2013-04-04 01:32:00,
2013-04-03 20:37:00,49.7,47.5,30.04,North,5,1.2,4.0,92,0.00,CLR,,0.44,WeatherDisplay:10.37,2013-04-04 01:37:00,
2013-04-03 20:42:00,49.6,47.4,30.04,WNW,294,1.7,4.6,92,0.00,CLR,,0.45,WeatherDisplay:10.37,2013-04-04 01:42:00,
2013-04-03 20:47:00,49.6,47.4,30.04,North,355,0.0,4.0,92,0.00,CLR,,0.44,WeatherDisplay:10.37,2013-04-04 01:47:00,
2013-04-03 20:52:00,49.6,47.4,30.05,NNW,338,0.4,3.5,92,0.00,CLR,,0.45,WeatherDisplay:10.37,2013-04-04 01:52:00,
2013-04-03 20:57:00,49.6,47.4,30.05,NNW,338,2.0,2.3,92,0.00,CLR,,0.44,WeatherDisplay:10.37,2013-04-04 01:57:00,
2013-04-03 21:02:00,49.6,47.4,30.05,NW,314,0.1,1.2,92,0.00,CLR,,0.45,WeatherDisplay:10.37,2013-04-04 02:02:00,
2013-04-03 21:07:00,49.6,47.4,30.05,North,355,3.2,3.5,92,0.00,CLR,,0.45,WeatherDisplay:10.37,2013-04-04 02:07:00,
2013-04-03 21:12:00,49.6,47.4,30.05,NNW,342,1.5,2.3,92,0.00,CLR,,0.44,WeatherDisplay:10.37,2013-04-04 02:12:00,
2013-04-03 21:17:00,49.6,47.4,30.06,North,360,1.6,4.6,92,0.00,CLR,,0.44,WeatherDisplay:10.37,2013-04-04 02:17:00,
2013-04-03 21:22:00,49.6,47.4,30.06,North,355,0.0,0.0,92,0.00,CLR,,0.44,WeatherDisplay:10.37,2013-04-04 02:22:00,
2013-04-03 21:27:00,49.6,47.4,30.06,North,5,1.1,2.3,92,0.00,CLR,,0.44,WeatherDisplay:10.37,2013-04-04 02:27:00,
2013-04-03 21:32:00,49.6,47.4,30.07,NNW,348,0.5,4.0,92,0.00,CLR,,0.45,WeatherDisplay:10.37,2013-04-04 02:32:00,
2013-04-03 21:37:00,49.6,47.4,30.07,NNW,345,0.0,3.5,92,0.00,CLR,,0.45,WeatherDisplay:10.37,2013-04-04 02:37:00,
2013-04-03 21:42:00,49.6,47.4,30.07,NW,314,0.0,3.5,92,0.00,CLR,,0.45,WeatherDisplay:10.37,2013-04-04 02:42:00,
2013-04-03 21:47:00,49.6,47.4,30.07,NNW,332,0.3,1.2,92,0.00,CLR,,0.44,WeatherDisplay:10.37,2013-04-04 02:47:00,
2013-04-03 21:52:00,49.6,47.4,30.07,NW,323,0.7,3.0,92,0.00,CLR,,0.45,WeatherDisplay:10.37,2013-04-04 02:52:00,
2013-04-03 21:57:00,49.6,47.4,30.07,NW,323,0.2,1.2,92,0.00,CLR,,0.44,WeatherDisplay:10.37,2013-04-04 02:57:00,
2013-04-03 22:02:00,49.6,47.4,30.08,NW,323,0.0,2.3,92,0.00,CLR,,0.44,WeatherDisplay:10.37,2013-04-04 03:02:00,
2013-04-03 22:07:00,49.6,47.4,30.08,WNW,296,0.0,1.2,92,0.00,CLR,,0.44,WeatherDisplay:10.37,2013-04-04 03:07:00,
2013-04-03 22:12:00,49.6,47.4,30.08,NNW,343,1.2,2.3,92,0.00,CLR,,0.44,WeatherDisplay:10.37,2013-04-04 03:12:00,
2013-04-03 22:17:00,49.6,47.4,30.08,NNW,336,0.0,2.3,92,0.00,CLR,,0.45,WeatherDisplay:10.37,2013-04-04 03:17:00,
2013-04-03 22:22:00,49.6,47.4,30.08,NNW,337,2.0,2.3,92,0.00,CLR,,0.44,WeatherDisplay:10.37,2013-04-04 03:22:00,
2013-04-03 22:27:00,49.6,47.4,30.09,North,351,0.1,2.3,92,0.00,CLR,,0.45,WeatherDisplay:10.37,2013-04-04 03:27:00,
2013-04-03 22:32:00,49.6,47.4,30.09,ESE,121,3.9,3.9,92,0.00,CLR,,0.44,WeatherDisplay:10.37,2013-04-04 03:32:00,
2013-04-03 22:37:00,49.7,47.5,30.09,NNW,332,0.6,3.5,92,0.00,CLR,,0.45,WeatherDisplay:10.37,2013-04-04 03:37:00,
2013-04-03 22:42:00,49.6,47.4,30.09,North,5,1.0,3.5,92,0.00,CLR,,0.44,WeatherDisplay:10.37,2013-04-04 03:42:00,
2013-04-03 22:48:00,49.5,47.3,30.09,NNW,342,0.0,2.3,92,0.00,CLR,,0.44,WeatherDisplay:10.37,2013-04-04 03:48:00,
2013-04-03 22:53:00,49.5,47.0,30.09,NW,324,0.7,3.5,91,0.00,CLR,,0.45,WeatherDisplay:10.37,2013-04-04 03:53:00,
2013-04-03 22:58:00,49.4,46.9,30.09,North,5,1.0,3.5,91,0.00,CLR,,0.44,WeatherDisplay:10.37,2013-04-04 03:58:00,
2013-04-03 23:00:00,49.4,46.9,30.09,NNW,336,0.0,3.5,91,0.00,CLR,,0.44,WeatherDisplay:10.37,2013-04-04 04:00:00,
2013-04-03 23:05:00,49.3,46.8,30.09,NW,311,0.8,2.3,91,0.00,CLR,,0.44,WeatherDisplay:10.37,2013-04-04 04:05:00,
2013-04-03 23:10:00,49.3,46.8,30.09,NW,319,2.3,4.0,91,0.00,CLR,,0.45,WeatherDisplay:10.37,2013-04-04 04:10:00,
2013-04-03 23:15:00,49.2,46.7,30.09,NNW,338,2.7,3.5,91,0.00,CLR,,0.44,WeatherDisplay:10.37,2013-04-04 04:15:00,
2013-04-03 23:20:00,49.2,46.7,30.09,North,350,2.0,2.3,91,0.00,CLR,,0.44,WeatherDisplay:10.37,2013-04-04 04:20:00,
2013-04-03 23:25:00,49.2,46.7,30.09,NW,323,4.1,4.6,91,0.00,CLR,,0.44,WeatherDisplay:10.37,2013-04-04 04:25:00,
2013-04-03 23:30:00,49.2,46.7,30.09,North,11,2.1,3.5,91,0.00,CLR,,0.44,WeatherDisplay:10.37,2013-04-04 04:30:00,
2013-04-03 23:35:00,49.2,46.7,30.08,NNE,17,1.6,3.5,91,0.00,CLR,,0.44,WeatherDisplay:10.37,2013-04-04 04:35:00,
2013-04-03 23:40:00,49.2,46.7,30.09,NNW,340,2.7,3.5,91,0.00,CLR,,0.45,WeatherDisplay:10.37,2013-04-04 04:40:00,
2013-04-03 23:45:00,49.1,46.6,30.09,NNW,332,1.0,3.5,91,0.00,CLR,,0.45,WeatherDisplay:10.37,2013-04-04 04:45:00,
2013-04-03 23:50:00,49.1,46.6,30.09,NNW,327,3.3,3.5,91,0.00,CLR,,0.44,WeatherDisplay:10.37,2013-04-04 04:50:00,
2013-04-03 23:55:00,49.0,46.2,30.09,NW,321,2.7,3.5,90,0.00,CLR,,0.45,WeatherDisplay:10.37,2013-04-04 04:55:00,